Camana, Peru
Current Conditions -  °F | °C
As of 7:00 AM on Sunday 28 Dec 2014 (Local Time) from SPQU Reporting Station
Clear Clear  
Wind Chill: 66°   Ceiling: Unl
Heat Index: 66°   Visibility: 6mi
Dew Point: 36°   Wind: 3mph
Humidity: 32%   Direction: NA
Pressure: 30.27"   Gusts: NA
Location:  16.62°S, 72.72°W
Report Text: SPQU 281200Z VRB03KT CAVOK 19/02 Q1025 NOSIG RMK PP000
Loading
Personal Weather Stations






























Interactive Weather Map New forecast layout! Learn more

10-Day Weather Forecast

Advertisements
Track Severe Weather on mobile